Home > Products > Valid Products > MTR

000
SAUS44 KEWX 181553
MTRATT
METAR KATT 181551Z AUTO 36004KT 10SM OVC011 26/22 A2993 RMK AO2
SLP123 T02610222





000
SAUS44 KEWX 181545
MTRATT
SPECI KATT 181544Z AUTO 00000KT 10SM BKN010 26/22 A2993 RMK AO2
T02560222





000
SAUS44 KEWX 181534
MTRATT
SPECI KATT 181533Z AUTO 00000KT 10SM BKN009 BKN020 26/23 A2992 RMK
AO2 CIG 007V012 T02560228





000
SAUS44 KEWX 181516
MTRATT
SPECI KATT 181515Z AUTO VRB03KT 10SM SCT009 BKN018 25/23 A2991 RMK
AO2 T02500228





000
SAUS44 KEWX 181453
MTRATT
METAR KATT 181451Z AUTO 00000KT 10SM OVC009 24/23 A2991 RMK AO2 CIG
006V011 SLP115 T02390228 51008





000
SAUS44 KEWX 181352
MTRATT
METAR KATT 181351Z AUTO 00000KT 10SM OVC007 23/22 A2991 RMK AO2 CIG
005V008 SLP114 T02280222





000
SAUS44 KEWX 181252
MTRATT
METAR KATT 181251Z AUTO 00000KT 10SM OVC005 22/22 A2991 RMK AO2
SLP115 T02220222





000
SAUS44 KEWX 181222
MTRATT
SPECI KATT 181221Z AUTO VRB03KT 10SM BKN003 OVC065 22/22 A2989 RMK
AO2 T02220222 $





000
SAUS44 KEWX 181152
MTRATT
METAR KATT 181151Z AUTO 00000KT 7SM FEW003 SCT065 22/22 A2988 RMK
AO2 RAE23 SLP106 P0004 60349 70382 T02220222 10244 20222 53011 $





000
SAUS44 KEWX 181118
MTRATT
SPECI KATT 181117Z AUTO 00000KT 10SM -RA FEW008 SCT070 BKN090 23/22
A2987 RMK AO2 P0004 T02280222 $





000
SAUS44 KEWX 181053
MTRATT
METAR KATT 181051Z AUTO 00000KT 4SM RA BR FEW090 SCT110 23/22 A2986
RMK AO2 TSE14 SLP099 P0003 T02280222 $





000
SAUS44 KEWX 181021
MTRATT
SPECI KATT 181020Z AUTO 00000KT 10SM -RA FEW006 SCT075 SCT120 23/22
A2986 RMK AO2 TSE14 P0001 T02280222 $





000
SAUS44 KEWX 180958
MTRATT
SPECI KATT 180957Z AUTO 29003KT 10SM -TSRA SCT008 SCT020 BKN075
23/22 A2986 RMK AO2 P0001 T02280222 $





000
SAUS44 KEWX 180953 COR
MTRATT
METAR KATT 180951Z AUTO 00000KT 10SM -TSRA SCT005 BKN011 BKN019
23/22 A2986 RMK AO2 TSB23E38B43B47 SLP098 P0001 T02280222 $





000
SAUS44 KEWX 180946
MTRATT
SPECI KATT 180944Z AUTO 23003KT 10SM -TSRA SCT005 BKN009 BKN017
22/22 A2987 RMK AO2 TSB23E38B43 P0001 T02220222 $





000
SAUS44 KEWX 180940
MTRATT
SPECI KATT 180938Z AUTO 22004KT 10SM -RA FEW005 SCT009 BKN015 22/22
A2986 RMK AO2 TSB23E38 P0001 T02220222 $





000
SAUS44 KEWX 180852
MTRATT
METAR KATT 180851Z AUTO VRB06KT 8SM -TSRA BKN008 BKN100 OVC120 24/24
A2985 RMK AO2 SLP093 P0014 60341 T02440239 $





000
SAUS44 KEWX 180848
MTRATT
SPECI KATT 180847Z AUTO 13008KT 8SM -TSRA BKN008 BKN100 OVC120 24/24
A2985 RMK AO2 P0014 $





000
SAUS44 KEWX 180825
MTRATT
SPECI KATT 180823Z AUTO 13004KT 5SM -TSRA BR SCT008 BKN013 OVC050
24/23 A2986 RMK AO2 P0012 T02390233 $





000
SAUS44 KEWX 180808
MTRATT
SPECI KATT 180806Z AUTO 11006KT 4SM TSRA BR BKN014 OVC045 23/23
A2988 RMK AO2 P0010 T02330233 $





000
SAUS44 KEWX 180752
MTRATT
METAR KATT 180751Z AUTO 09006KT 2SM +TSRA BR SCT016 OVC043 23/23
A2988 RMK AO2 RAB08 TSB07 SLP105 P0150 T02330233 $





000
SAUS44 KEWX 180739
MTRATT
SPECI KATT 180738Z AUTO VRB05KT 2 1/2SM +TSRA BR FEW009 SCT016
OVC030 23/23 A2989 RMK AO2 RAB08 TSB07 P0140 T02280228 $





000
SAUS44 KEWX 180723
MTRATT
SPECI KATT 180722Z AUTO 1SM +TSRA BR 23/23 A2990 RMK AO2 RAB08 TSB07
P0126 T02280228 $





000
SAUS44 KEWX 180715
MTRATT
SPECI KATT 180714Z AUTO VRB04KT +TSRA 23/23 A2989 RMK AO2 RAB08
TSB07 P0109 T02280228 $





000
SAUS44 KEWX 180703
MTRATT
SPECI KATT 180702Z AUTO 02008KT 1/2SM +TSRA FG VV013 23/22 A2990 RMK
AO2 P0059 T02280222





000
SAUS44 KEWX 180652
MTRATT
METAR KATT 180651Z AUTO 00000KT 1/2SM +TSRA FG VV015 22/22 A2990 RMK
AO2 PK WND 36029/0627 TSB0552 SLP110 P0177 T02220222





000
SAUS44 KEWX 180624
MTRATT
SPECI KATT 180623Z AUTO 03016G23KT 3/4SM +TSRA BR SCT007 OVC016
22/22 A2990 RMK AO2 TSB0552 P0053 T02220222





000
SAUS44 KEWX 180609
MTRATT
SPECI KATT 180608Z AUTO 03010KT 1 3/4SM +TSRA BR OVC009 23/23 A2990
RMK AO2 TSB0552 CIG 005V012 P0008 T02330228





000
SAUS44 KEWX 180552
MTRATT
METAR KATT 180551Z AUTO VRB04KT 7SM -TSRA BKN009 BKN022 OVC055 24/23
A2991 RMK AO2 TSB08E23B35B42 SLP115 P0021 60033 T02390233 10300
20239 403280239 58006





000
SAUS44 KEWX 180550
MTRATT
SPECI KATT 180548Z AUTO VRB04KT 7SM -TSRA SCT009 BKN022 OVC050 24/23
A2991 RMK AO2 TSB08E23B35B42 P0021





000
SAUS44 KEWX 180542
MTRATT
SPECI KATT 180541Z AUTO VRB03KT 6SM -TSRA BR FEW017 BKN045 OVC060
24/24 A2991 RMK AO2 TSB08E23B35 P0020 T02390239





000
SAUS44 KEWX 180533
MTRATT
SPECI KATT 180532Z AUTO VRB03KT 4SM -RA BR FEW009 BKN045 OVC060
24/24 A2992 RMK AO2 TSB08E23 P0019 T02390239





000
SAUS44 KEWX 180524
MTRATT
SPECI KATT 180523Z AUTO 00000KT 2 1/2SM RA BR FEW009 BKN043 OVC060
24/23 A2992 RMK AO2 TSB08E23 P0016 T02390233





000
SAUS44 KEWX 180512
MTRATT
SPECI KATT 180511Z AUTO 00000KT 1 3/4SM +TSRA BR FEW009 BKN041
OVC055 24/24 A2992 RMK AO2 TSB08 P0007 T02390239





000
SAUS44 KEWX 180501
MTRATT
SPECI KATT 180500Z AUTO 14004KT 4SM TSRA BR FEW009 BKN060 OVC080
24/24 A2992 RMK AO2 P0002 T02440239





000
SAUS44 KEWX 180452
MTRATT
METAR KATT 180451Z AUTO 15004KT 2SM TSRA BR FEW009 BKN044 OVC075
24/24 A2993 RMK AO2 RAB02 TSB41 SLP120 P0012 T02440239





000
SAUS44 KEWX 180443
MTRATT
SPECI KATT 180442Z AUTO 00000KT 3SM TSRA BR FEW009 BKN075 OVC100
24/24 A2992 RMK AO2 RAB02 TSB41 P0007 T02440239





000
SAUS44 KEWX 180441
MTRATT
SPECI KATT 180439Z AUTO VRB04KT 4SM VCTS RA BR FEW011 BKN075 OVC100
24/24 A2992 RMK AO2 RAB02 P0006 T02440239





000
SAUS44 KEWX 180416
MTRATT
SPECI KATT 180415Z AUTO 14006KT 5SM -RA BR SCT011 BKN043 OVC090
24/23 A2992 RMK AO2 RAB02 P0001 T02440233





000
SAUS44 KEWX 180352
MTRATT
METAR KATT 180351Z AUTO 16006KT 10SM BKN011 OVC050 26/23 A2993 RMK
AO2 SLP121 T02560233





000
SAUS44 KEWX 180253
MTRATT
METAR KATT 180251Z AUTO 12010G15KT 10SM FEW050 27/23 A2992 RMK AO2
SLP118 T02670228 53020





000
SAUS44 KEWX 180153
MTRATT
METAR KATT 180151Z AUTO 13004KT 10SM FEW080 BKN110 29/22 A2988 RMK
AO2 SLP106 T02890217





000
SAUS44 KEWX 180052
MTRATT
METAR KATT 180051Z AUTO 00000KT 10SM SCT080 BKN100 29/22 A2987 RMK
AO2 SLP101 T02890222





000
SAUS44 KEWX 172352
MTRATT
METAR KATT 172351Z AUTO 18004KT 10SM OVC095 31/22 A2986 RMK AO2
SLP097 T03060222 10328 20294 55005





000
SAUS44 KEWX 172252
MTRATT
METAR KATT 172251Z AUTO 17005KT 10SM BKN095 31/22 A2985 RMK AO2
SLP095 T03060222





000
SAUS44 KEWX 172152
MTRATT
METAR KATT 172151Z AUTO VRB03KT 10SM SCT070 BKN095 30/23 A2986 RMK
AO2 SLP097 T03000228





000
SAUS44 KEWX 172052
MTRATT
METAR KATT 172051Z AUTO VRB06KT 10SM SCT040 32/22 A2987 RMK AO2
SLP101 T03220222 57027





000
SAUS44 KEWX 171952
MTRATT
METAR KATT 171951Z AUTO VRB04KT 10SM FEW035 SCT045 32/23 A2990 RMK
AO2 SLP110 T03170228





000
SAUS44 KEWX 171852
MTRATT
METAR KATT 171851Z AUTO 15007KT 10SM BKN033 31/23 A2993 RMK AO2
SLP121 T03110233





000
SAUS44 KEWX 171844
MTRATT
SPECI KATT 171843Z AUTO VRB03KT 10SM SCT029 SCT037 31/23 A2993 RMK
AO2 T03110228





000
SAUS44 KEWX 171820
MTRATT
SPECI KATT 171819Z AUTO VRB03KT 10SM BKN028 31/23 A2994 RMK AO2
T03110233





000
SAUS44 KEWX 171752
MTRATT
METAR KATT 171751Z AUTO 00000KT 10SM FEW025 30/23 A2995 RMK AO2
SLP130 60000 T03000233 10311 20244 58012





000
SAUS44 KEWX 171730
MTRATT
SPECI KATT 171729Z AUTO VRB05KT 10SM SCT025 30/23 A2996 RMK AO2
T03000233





000
SAUS44 KEWX 171714
MTRATT
SPECI KATT 171713Z AUTO 10SM BKN023 BKN050 30/23 A2997 RMK AO2
T03000233





000
SAUS44 KEWX 171652
MTRATT
METAR KATT 171651Z AUTO VRB04KT 10SM SCT021 SCT043 BKN050 29/23
A2997 RMK AO2 SLP137 T02940233





000
SAUS44 KEWX 171629
MTRATT
SPECI KATT 171628Z AUTO 00000KT 10SM SCT019 SCT040 28/23 A2998 RMK
AO2 T02830233





000
SAUS44 KEWX 171552
MTRATT
METAR KATT 171551Z AUTO 00000KT 10SM SCT016 BKN023 OVC039 29/24
A2999 RMK AO2 SLP141 T02890239





000
SAUS44 KEWX 171540
MTRATT
SPECI KATT 171539Z AUTO 22003KT 10SM BKN016 BKN027 OVC036 27/23
A2999 RMK AO2 T02720233





000
SAUS44 KEWX 171507 COR
MTRATT
SPECI KATT 171500Z AUTO 00000KT 10SM BKN011 BKN028 27/24 A2999 RMK
AO2 T02670239





000
SAUS44 KEWX 171501
MTRATT
SPECI KATT 171500Z AUTO 00000KT 10SM BKN011 BKN028 27/24 A2999 RMK
AO2 T02670239





000
SAUS44 KEWX 171452
MTRATT
METAR KATT 171451Z AUTO 00000KT 10SM SCT013 BKN019 BKN027 26/24
A2999 RMK AO2 RAB28E50 SLP143 P0000 60000 T02610239 51007





000
SAUS44 KEWX 171447
MTRATT
SPECI KATT 171446Z AUTO 00000KT 9SM -RA SCT013 BKN019 OVC027 26/24
A2999 RMK AO2 RAB28 P0000





000
SAUS44 KEWX 171425
MTRATT
SPECI KATT 171424Z AUTO 13003KT 8SM BKN010 BKN019 OVC025 26/23 A2999
RMK AO2 CIG 009V013 T02560233





000
SAUS44 KEWX 171419
MTRATT
SPECI KATT 171417Z AUTO 00000KT 8SM BKN009 OVC019 26/23 A2999 RMK
AO2 CIG 009V013 T02610233





000
SAUS44 KEWX 171408
MTRATT
SPECI KATT 171407Z AUTO 00000KT 8SM SCT009 OVC019 26/23 A2999 RMK
AO2 T02560233





000
SAUS44 KEWX 171352
MTRATT
METAR KATT 171351Z AUTO 00000KT 8SM BKN009 BKN013 OVC019 26/23 A2999
RMK AO2 SLP143 T02560233





000
SAUS44 KEWX 171252
MTRATT
METAR KATT 171251Z AUTO 00000KT 7SM OVC010 25/23 A2998 RMK AO2 CIG
008V013 SLP139 T02500233





000
SAUS44 KEWX 171153
MTRATT
METAR KATT 171151Z AUTO 00000KT 8SM OVC009 24/23 A2997 RMK AO2 CIG
007V012 SLP136 70002 T02440233 10244 20239 55005





000
SAUS44 KEWX 171143
MTRATT
SPECI KATT 171142Z AUTO 00000KT 8SM OVC009 24/23 A2997 RMK AO2 CIG
007V012 T02440233





000
SAUS44 KEWX 171052
MTRATT
METAR KATT 171051Z AUTO 00000KT 8SM OVC014 24/23 A2997 RMK AO2
SLP133 T02440233





000
SAUS44 KEWX 171020
MTRATT
SPECI KATT 171019Z AUTO 00000KT 8SM FEW008 BKN014 24/23 A2997 RMK
AO2 T02390233





000
SAUS44 KEWX 170952
MTRATT
METAR KATT 170951Z AUTO 00000KT 10SM OVC008 24/23 A2997 RMK AO2 CIG
006V011 SLP133 T02440233





000
SAUS44 KEWX 170853
MTRATT
METAR KATT 170851Z AUTO 00000KT 10SM OVC005 24/23 A2998 RMK AO2
SLP138 T02440233 56008





000
SAUS44 KEWX 170752
MTRATT
METAR KATT 170751Z AUTO 00000KT 10SM OVC009 24/23 A2999 RMK AO2 CIG
007V014 SLP140 T02440233





000
SAUS44 KEWX 170652
MTRATT
METAR KATT 170651Z AUTO 00000KT 10SM BKN009 OVC015 24/23 A2999 RMK
AO2 CIG 006V010 SLP143 T02440233





000
SAUS44 KEWX 170641
MTRATT
SPECI KATT 170640Z AUTO VRB04KT 10SM BKN009 BKN015 24/23 A3000 RMK
AO2 CIG 006V013 T02390233





000
SAUS44 KEWX 170552
MTRATT
METAR KATT 170551Z AUTO 00000KT 10SM SCT006 24/23 A3001 RMK AO2
SLP148 60002 T02390233 10272 20239 403440233 58009





000
SAUS44 KEWX 170538
MTRATT
SPECI KATT 170537Z AUTO 00000KT 10SM SCT007 24/23 A3001 RMK AO2
T02390233





000
SAUS44 KEWX 170529
MTRATT
SPECI KATT 170528Z AUTO 00000KT 10SM BKN007 24/23 A3001 RMK AO2
T02390233





000
SAUS44 KEWX 170501
MTRATT
SPECI KATT 170500Z AUTO 11003KT 10SM SCT008 24/23 A3002 RMK AO2
T02440233





000
SAUS44 KEWX 170452
MTRATT
METAR KATT 170451Z AUTO 00000KT 10SM BKN008 24/23 A3002 RMK AO2 CIG
006V011 SLP153 T02440233





000
SAUS44 KEWX 170442
MTRATT
SPECI KATT 170440Z AUTO 00000KT 10SM BKN008 24/23 A3003 RMK AO2 CIG
006V011 T02440233





000
SAUS44 KEWX 170434
MTRATT
SPECI KATT 170432Z AUTO 00000KT 10SM BKN010 24/23 A3003 RMK AO2 CIG
007V014 T02440233





000
SAUS44 KEWX 170352
MTRATT
METAR KATT 170351Z AUTO 00000KT 10SM CLR 24/23 A3003 RMK AO2 SLP157
T02440233





000
SAUS44 KEWX 170253
MTRATT
METAR KATT 170251Z AUTO 00000KT 10SM CLR 24/23 A3004 RMK AO2 RAE07
SLP158 P0001 60002 T02440233 51021





000
SAUS44 KEWX 170152
MTRATT
METAR KATT 170151Z AUTO 00000KT 8SM -RA FEW048 BKN110 24/23 A3001
RMK AO2 TSE0052 SLP149 P0001 T02440228





000
SAUS44 KEWX 170113
MTRATT
SPECI KATT 170112Z AUTO 08004KT 10SM -RA SCT021 BKN050 OVC075 26/23
A3001 RMK AO2 TSE0052 P0000 T02560228





000
SAUS44 KEWX 170058
MTRATT
SPECI KATT 170057Z AUTO 13004KT 10SM -RA BKN019 BKN048 OVC065 26/23
A3001 RMK AO2 TSE52 P0000 T02560228





000
SAUS44 KEWX 170052
MTRATT
METAR KATT 170051Z AUTO 11005KT 10SM -TSRA SCT021 BKN048 OVC065
26/22 A3000 RMK AO2 RAB44 TSE25B33B37 SLP148 P0000 T02610222





000
SAUS44 KEWX 170040
MTRATT
SPECI KATT 170039Z AUTO VRB04KT 10SM TS SCT050 BKN065 OVC075 27/22
A2999 RMK AO2 TSE25B33B37 T02670222





000
SAUS44 KEWX 170032
MTRATT
SPECI KATT 170031Z AUTO VRB05KT 10SM VCTS SCT050 BKN060 OVC120 27/22
A2998 RMK AO2 TSE25 T02670222





000
SAUS44 KEWX 170018
MTRATT
SPECI KATT 170017Z AUTO 13007G17KT 10SM TS FEW065 BKN120 27/22 A2998
RMK AO2 T02670222





000
SAUS44 KEWX 162353
MTRATT
METAR KATT 162351Z AUTO 14009G21KT 10SM FEW095 27/23 A2997 RMK AO2
RAB39E49 SLP137 P0000 60000 T02720228 10344 20272 53004





000
SAUS44 KEWX 162252
MTRATT
METAR KATT 162251Z AUTO 11007KT 10SM FEW060 33/21 A2995 RMK AO2
SLP128 T03280206





000
SAUS44 KEWX 162152
MTRATT
METAR KATT 162151Z AUTO VRB05KT 10SM SCT050 34/21 A2994 RMK AO2
SLP123 T03390206





000
SAUS44 KEWX 162053
MTRATT
METAR KATT 162051Z AUTO VRB03KT 10SM FEW065 34/21 A2996 RMK AO2
SLP130 T03440211 58033





000
SAUS44 KEWX 161952
MTRATT
METAR KATT 161951Z AUTO 05004KT 10SM SCT045 BKN080 BKN090 33/22
A3000 RMK AO2 SLP143 T03330217





000
SAUS44 KEWX 161852
MTRATT
METAR KATT 161851Z AUTO 02005KT 10SM FEW038 FEW048 SCT090 33/22
A3003 RMK AO2 SLP153 T03280222





000
SAUS44 KEWX 161752
MTRATT
METAR KATT 161751Z AUTO VRB04KT 10SM SCT055 31/22 A3006 RMK AO2
SLP164 T03110222 10317 20233 58018





000
SAUS44 KEWX 161652
MTRATT
METAR KATT 161651Z AUTO VRB03KT 10SM FEW030 31/23 A3008 RMK AO2
SLP171 T03060228





000
SAUS44 KEWX 161552
MTRATT
METAR KATT 161551Z AUTO VRB03KT 10SM FEW021 29/23 A3010 RMK AO2
SLP179 T02890228





000
SAUS44 KEWX 161452
MTRATT
METAR KATT 161451Z AUTO 00000KT 10SM CLR 28/23 A3011 RMK AO2 SLP183
T02780228 51009





000
SAUS44 KEWX 161352
MTRATT
METAR KATT 161351Z AUTO VRB03KT 8SM CLR 26/23 A3010 RMK AO2 SLP180
T02610228





000
SAUS44 KEWX 161252
MTRATT
METAR KATT 161251Z AUTO 00000KT 6SM BR CLR 24/22 A3010 RMK AO2
SLP179 T02390222





000
SAUS44 KEWX 161153
MTRATT
METAR KATT 161151Z AUTO 00000KT 7SM CLR 24/22 A3008 RMK AO2 SLP174
T02390222 10256 20233 56000





000
SAUS44 KEWX 161052
MTRATT
METAR KATT 161051Z AUTO 00000KT 8SM CLR 24/22 A3008 RMK AO2 SLP174
T02390222





000
SAUS44 KEWX 160953
MTRATT
METAR KATT 160951Z AUTO 00000KT 9SM CLR 24/22 A3008 RMK AO2 SLP174
T02440222





000
SAUS44 KEWX 160852
MTRATT
METAR KATT 160851Z AUTO 00000KT 10SM CLR 24/22 A3009 RMK AO2 SLP174
T02440222 58007





000
SAUS44 KEWX 160752
MTRATT
METAR KATT 160751Z AUTO 00000KT 10SM CLR 25/22 A3010 RMK AO2 SLP179
T02500222





000
SAUS44 KEWX 160652
MTRATT
METAR KATT 160651Z AUTO VRB04KT 10SM FEW041 25/22 A3011 RMK AO2
SLP182 T02500222





000
SAUS44 KEWX 160552
MTRATT
METAR KATT 160551Z AUTO 04003KT 10SM FEW047 26/22 A3011 RMK AO2
SLP183 T02560217 10294 20256 403110206 50004





000
SAUS44 KEWX 160452
MTRATT
METAR KATT 160451Z AUTO VRB03KT 10SM BKN043 26/21 A3012 RMK AO2
SLP187 T02610211





000
SAUS44 KEWX 160353
MTRATT
METAR KATT 160351Z AUTO 00000KT 10SM BKN047 OVC055 27/21 A3011 RMK
AO2 SLP184 T02720211





000
SAUS44 KEWX 160252
MTRATT
METAR KATT 160251Z AUTO VRB03KT 10SM CLR 27/21 A3010 RMK AO2 SLP179
T02720211 53014





000
SAUS44 KEWX 160153
MTRATT
METAR KATT 160151Z AUTO 04003KT 10SM CLR 27/21 A3008 RMK AO2 SLP174
T02720206





000
SAUS44 KEWX 160053
MTRATT
METAR KATT 160051Z AUTO VRB03KT 10SM CLR 28/21 A3006 RMK AO2 SLP169
T02830206





000
SAUS44 KEWX 152353
MTRATT
METAR KATT 152351Z AUTO VRB03KT 10SM CLR 30/20 A3006 RMK AO2 SLP165
T03000200 10311 20267 55001





000
SAUS44 KEWX 152252
MTRATT
METAR KATT 152251Z AUTO 13005KT 10SM CLR 30/20 A3005 RMK AO2 SLP164
T03000200





000
SAUS44 KEWX 152152
MTRATT
METAR KATT 152151Z AUTO VRB05KT 10SM CLR 30/21 A3005 RMK AO2 SLP165
T03000206





000
SAUS44 KEWX 152053
MTRATT
METAR KATT 152051Z AUTO 00000KT 10SM CLR 30/20 A3006 RMK AO2 SLP167
T03000200 58023





000
SAUS44 KEWX 151952
MTRATT
METAR KATT 151951Z AUTO VRB03KT 10SM CLR 29/21 A3008 RMK AO2 SLP174
T02940206





000
SAUS44 KEWX 151913
MTRATT
SPECI KATT 151912Z AUTO 10004KT 10SM BKN030 28/20 A3010 RMK AO2
T02780200





000
SAUS44 KEWX 151852
MTRATT
METAR KATT 151851Z AUTO 00000KT 10SM OVC028 27/20 A3011 RMK AO2
SLP184 T02720200





000
SAUS44 KEWX 151753
MTRATT
METAR KATT 151751Z AUTO 00000KT 10SM OVC024 27/19 A3013 RMK AO2
SLP193 T02670194 10272 20206 58004





000
SAUS44 KEWX 151653
MTRATT
METAR KATT 151651Z AUTO 00000KT 10SM OVC021 25/20 A3015 RMK AO2
SLP199 T02500200





    US Dept of Commerce
    National Oceanic and Atmospheric Administration
    National Weather Service
    1325 East West Highway
    Silver Spring, MD 20910
    Page Author: NWS Internet Services Team
Disclaimer
Information Quality
Credits
Glossary
Privacy Policy
Freedom of Information Act (FOIA)
About Us
Career Opportunities